Ridgeway, Ohio
Current Conditions -  °F | °C
As of 5:30 AM on Saturday 22 Nov 2014 (Local Time) from KEDJ Reporting Station
Overcast Overcast  
Wind Chill: 21°   Ceiling: 1400
Heat Index: 30°   Visibility: 10mi
Dew Point: 18°   Wind: 12mph
Humidity: 60%   Direction: 150°SSE
Pressure: 30.25"   Gusts: NA
Location:  40.51°N, 83.57°W
Report Text: KEDJ 221030Z AUTO 15010KT 10SM OVC014 M01/M08 A3025 RMK AO1
Loading
Personal Weather Stations






























Interactive Weather Map New forecast layout! Learn more

10-Day Weather Forecast

Advertisements
Track Severe Weather on mobile